Ansley, Mississippi
Current Conditions -  °F | °C
As of 7:55 AM on Monday 20 Oct 2014 (Local Time) from KHSA Reporting Station
Clear Clear  
Wind Chill: 54°   Ceiling: Unl
Heat Index: 54°   Visibility: 10mi
Dew Point: 48°   Wind: 0mph
Humidity: 82%   Direction: NA
Pressure: 30.06"   Gusts: NA
Location:  30.2253°N, 89.4838°W
Report Text: KHSA 201255Z 00000KT 10SM CLR 12/09 A3006
Loading
Personal Weather Stations






























Interactive Weather Map New forecast layout! Learn more

10-Day Weather Forecast

Advertisements
Track Severe Weather on mobile